Big Bear Station Historical Data
Daily Summary for January 20, 2019 Units:  English    Metric   Both
Next Day »
Daily Weekly Monthly Yearly Custom
  High: Low: Average:
Temperature: 50.4 °F 23.7 °F 36.2 °F
Dew Point: 32.9 °F 22.5 °F 27.2 °F
Humidity: 97% 42% 73%
Wind Speed: 5.3mph 0.0mph 1.3mph
Wind Gust: -999.0mph - -
Wind- - West
Pressure: 23.66 in 23.40 in -
Precipitation: 0.00 in    
Historical Graphs
 
 
Tabular Data for January 20, 2019
Time Temperature Dew Point Pressure Wind Wind Speed Wind Gust Humidity Rainfall Rate (Hourly)
00:03 26.6 °F 24.6 °F 23.66 in Calm   -999.0 mph 92% 0.00 in
00:18 26.2 °F 24.2 °F 23.66 in Calm   -999.0 mph 92% 0.00 in
00:33 26.1 °F 24.4 °F 23.65 in Calm   -999.0 mph 93% 0.00 in
00:48 26.1 °F 24.4 °F 23.65 in Calm   -999.0 mph 93% 0.00 in
01:04 25.9 °F 24.2 °F 23.64 in Calm   -999.0 mph 93% 0.00 in
01:19 25.9 °F 24.2 °F 23.64 in Calm   -999.0 mph 93% 0.00 in
01:34 26.1 °F 24.4 °F 23.64 in Calm   -999.0 mph 93% 0.00 in
01:49 25.5 °F 24.0 °F 23.64 in Calm   -999.0 mph 94% 0.00 in
02:04 25.5 °F 24.0 °F 23.64 in Calm   -999.0 mph 94% 0.00 in
02:20 25.7 °F 24.5 °F 23.63 in Calm   -999.0 mph 95% 0.00 in
02:35 25.3 °F 24.1 °F 23.64 in Calm   -999.0 mph 95% 0.00 in
02:50 25.7 °F 24.5 °F 23.63 in Calm   -999.0 mph 95% 0.00 in
03:05 25.5 °F 23.8 °F 23.63 in Calm   -999.0 mph 93% 0.00 in
03:20 25.2 °F 23.7 °F 23.62 in Calm   -999.0 mph 94% 0.00 in
03:36 25.2 °F 24.0 °F 23.62 in Calm   -999.0 mph 95% 0.00 in
03:51 25.2 °F 24.0 °F 23.62 in Calm   -999.0 mph 95% 0.00 in
04:06 25.2 °F 24.0 °F 23.61 in Calm   -999.0 mph 95% 0.00 in
04:21 24.6 °F 23.4 °F 23.61 in Calm   -999.0 mph 95% 0.00 in
04:36 24.8 °F 23.3 °F 23.60 in Calm   -999.0 mph 94% 0.00 in
04:52 24.4 °F 22.9 °F 23.59 in Calm   -999.0 mph 94% 0.00 in
05:07 24.3 °F 23.1 °F 23.60 in Calm   -999.0 mph 95% 0.00 in
05:22 24.1 °F 22.9 °F 23.59 in Calm   -999.0 mph 95% 0.00 in
05:37 24.6 °F 23.6 °F 23.59 in Calm   -999.0 mph 96% 0.00 in
05:53 24.1 °F 23.1 °F 23.60 in Calm   -999.0 mph 96% 0.00 in
06:08 24.3 °F 23.3 °F 23.60 in Calm   -999.0 mph 96% 0.00 in
06:23 23.7 °F 22.5 °F 23.59 in Calm   -999.0 mph 95% 0.00 in
06:38 24.6 °F 23.9 °F 23.60 in Calm   -999.0 mph 97% 0.00 in
06:53 24.3 °F 23.6 °F 23.60 in Calm   -999.0 mph 97% 0.00 in
07:09 24.3 °F 23.3 °F 23.60 in Calm   -999.0 mph 96% 0.00 in
07:24 25.9 °F 23.9 °F 23.60 in Calm   -999.0 mph 92% 0.00 in
07:39 25.5 °F 23.8 °F 23.59 in Calm   -999.0 mph 93% 0.00 in
07:54 26.2 °F 24.7 °F 23.59 in Calm   -999.0 mph 94% 0.00 in
08:09 27.3 °F 25.0 °F 23.59 in Calm   -999.0 mph 91% 0.00 in
08:25 29.3 °F 26.7 °F 23.59 in Calm   -999.0 mph 90% 0.00 in
08:40 34.3 °F 27.5 °F 23.59 in NW 2.7 mph -999.0 mph 76% 0.00 in
08:55 39.6 °F 25.6 °F 23.59 in Calm   -999.0 mph 57% 0.00 in
09:10 41.4 °F 25.5 °F 23.59 in Calm   -999.0 mph 53% 0.00 in
09:25 43.3 °F 24.9 °F 23.59 in NW 2.2 mph -999.0 mph 48% 0.00 in
09:41 44.2 °F 25.7 °F 23.59 in SSE 1.1 mph -999.0 mph 48% 0.00 in
09:56 45.9 °F 25.7 °F 23.59 in Calm   -999.0 mph 45% 0.00 in
10:11 46.4 °F 26.7 °F 23.59 in Calm   -999.0 mph 46% 0.00 in
10:26 47.5 °F 27.2 °F 23.59 in ENE 1.7 mph -999.0 mph 45% 0.00 in
10:41 48.6 °F 27.7 °F 23.59 in Calm   -999.0 mph 44% 0.00 in
10:57 48.6 °F 28.2 °F 23.58 in NW 4.2 mph -999.0 mph 45% 0.00 in
11:12 48.0 °F 28.7 °F 23.58 in WNW 3.2 mph -999.0 mph 47% 0.00 in
11:27 48.6 °F 28.7 °F 23.56 in NNW 3.2 mph -999.0 mph 46% 0.00 in
11:42 48.6 °F 29.3 °F 23.56 in Calm   -999.0 mph 47% 0.00 in
11:58 48.9 °F 29.0 °F 23.55 in WNW 2.7 mph -999.0 mph 46% 0.00 in
12:13 48.7 °F 28.8 °F 23.54 in SW 2.7 mph -999.0 mph 46% 0.00 in
12:29 50.4 °F 29.8 °F 23.54 in WNW 2.2 mph -999.0 mph 45% 0.00 in
12:44 49.8 °F 30.4 °F 23.54 in North 4.2 mph -999.0 mph 47% 0.00 in
13:00 49.3 °F 28.3 °F 23.53 in NW 1.1 mph -999.0 mph 44% 0.00 in
13:15 50.0 °F 28.4 °F 23.52 in West 1.7 mph -999.0 mph 43% 0.00 in
13:31 49.6 °F 27.4 °F 23.51 in ESE 1.7 mph -999.0 mph 42% 0.00 in
13:46 48.6 °F 28.7 °F 23.51 in WSW 1.7 mph -999.0 mph 46% 0.00 in
14:01 48.6 °F 27.1 °F 23.51 in WNW 2.7 mph -999.0 mph 43% 0.00 in
14:17 48.6 °F 28.7 °F 23.51 in NNW 4.2 mph -999.0 mph 46% 0.00 in
14:32 48.6 °F 29.3 °F 23.51 in Calm   -999.0 mph 47% 0.00 in
14:47 47.7 °F 30.4 °F 23.50 in West 1.1 mph -999.0 mph 51% 0.00 in
15:02 47.3 °F 30.1 °F 23.50 in ESE 2.2 mph -999.0 mph 51% 0.00 in
15:17 46.8 °F 29.1 °F 23.50 in NW 5.3 mph -999.0 mph 50% 0.00 in
15:33 46.9 °F 27.2 °F 23.49 in NNE 3.2 mph -999.0 mph 46% 0.00 in
15:48 45.9 °F 28.8 °F 23.48 in Calm   -999.0 mph 51% 0.00 in
16:03 45.0 °F 28.4 °F 23.48 in West 3.7 mph -999.0 mph 52% 0.00 in
16:18 43.5 °F 29.7 °F 23.48 in WNW 4.2 mph -999.0 mph 58% 0.00 in
16:33 43.0 °F 29.2 °F 23.48 in WNW 2.2 mph -999.0 mph 58% 0.00 in
16:49 42.1 °F 28.8 °F 23.47 in NW 4.2 mph -999.0 mph 59% 0.00 in
17:04 41.2 °F 29.2 °F 23.47 in North 3.7 mph -999.0 mph 62% 0.00 in
17:19 40.3 °F 29.1 °F 23.47 in WNW 1.7 mph -999.0 mph 64% 0.00 in
17:35 39.9 °F 28.7 °F 23.47 in NNW 4.7 mph -999.0 mph 64% 0.00 in
17:50 39.7 °F 28.5 °F 23.47 in NW 3.2 mph -999.0 mph 64% 0.00 in
18:05 39.4 °F 25.4 °F 23.46 in Calm   -999.0 mph 57% 0.00 in
18:20 39.0 °F 26.7 °F 23.47 in Calm   -999.0 mph 61% 0.00 in
18:35 38.7 °F 27.9 °F 23.46 in WNW 3.2 mph -999.0 mph 65% 0.00 in
18:51 38.7 °F 28.3 °F 23.46 in WNW 2.7 mph -999.0 mph 66% 0.00 in
19:06 38.5 °F 28.9 °F 23.46 in NNW 3.7 mph -999.0 mph 68% 0.00 in
19:21 38.3 °F 29.0 °F 23.46 in NW 2.2 mph -999.0 mph 69% 0.00 in
19:36 38.7 °F 29.8 °F 23.45 in Calm   -999.0 mph 70% 0.00 in
19:51 38.5 °F 30.6 °F 23.45 in West 2.7 mph -999.0 mph 73% 0.00 in
20:07 37.9 °F 31.3 °F 23.45 in Calm   -999.0 mph 77% 0.00 in
20:22 37.9 °F 32.0 °F 23.44 in SSW 2.7 mph -999.0 mph 79% 0.00 in
20:37 37.9 °F 32.6 °F 23.44 in SW 5.3 mph -999.0 mph 81% 0.00 in
20:52 37.8 °F 32.8 °F 23.43 in SSW 3.2 mph -999.0 mph 82% 0.00 in
21:08 37.6 °F 32.9 °F 23.43 in SW 2.2 mph -999.0 mph 83% 0.00 in
21:23 36.7 °F 32.3 °F 23.43 in North 1.7 mph -999.0 mph 84% 0.00 in
21:38 35.8 °F 31.7 °F 23.43 in Calm   -999.0 mph 85% 0.00 in
21:53 35.4 °F 31.3 °F 23.42 in WSW 2.2 mph -999.0 mph 85% 0.00 in
22:09 34.7 °F 30.7 °F 23.42 in Calm   -999.0 mph 85% 0.00 in
22:24 34.3 °F 30.0 °F 23.42 in Calm   -999.0 mph 84% 0.00 in
22:40 34.0 °F 29.4 °F 23.43 in Calm   -999.0 mph 83% 0.00 in
22:55 33.6 °F 28.7 °F 23.42 in Calm   -999.0 mph 82% 0.00 in
23:10 33.4 °F 28.5 °F 23.41 in WNW 4.2 mph -999.0 mph 82% 0.00 in
23:25 34.3 °F 30.0 °F 23.41 in Calm   -999.0 mph 84% 0.00 in
23:41 35.2 °F 31.7 °F 23.40 in WSW 1.7 mph -999.0 mph 87% 0.00 in
23:58 35.8 °F 31.7 °F 23.40 in SSE 4.2 mph -999.0 mph 85% 0.00 in
Big Bear CA Weather